Terminal Aerodrome Forecast
Issued by NWS Upton, NY

Current Version | Previous Version | Text Only | Print | Product List | Glossary On
Versions: 1 2 3 4 5 6 7 8 9 10 11 12 13 14 15 16 17 18 19 20 21 22 23 24 25 26 27 28
000 FTUS41 KOKX 240800 AAA TAFISP TAF AMD KISP 240830Z 2409/2506 31014G23KT P6SM SKC FM241400 32026G38KT P6SM SKC FM242200 32020G31KT P6SM SKC FM250000 32012KT P6SM SKC=

USA.gov is the U.S. government's official web portal to all federal, state and local government web resources and services.